Time;durP1;ratioP1;P1;durP2;ratioP2;P2;SDS_P1;SDS_P2;PMS_P1;PMS_P2;Temp;Humidity;BMP_temperature;BMP_pressure;BME280_temperature;BME280_humidity;BME280_pressure;Samples;Min_cycle;Max_cycle;Signal;HPM_P1;HPM_P2
2022/07/01 00:01:54;;;;;;;0.93;0.60;;;22.80;54.90;;;;;;953548;149;27416;-70
2022/07/01 00:04:19;;;;;;;1.17;0.78;;;22.70;54.90;;;;;;953700;148;27312;-71
2022/07/01 00:06:45;;;;;;;1.37;0.40;;;22.70;55.00;;;;;;953793;150;27443;-71
2022/07/01 00:09:12;;;;;;;0.75;0.20;;;22.60;55.10;;;;;;953355;150;27359;-71
2022/07/01 00:11:39;;;;;;;0.42;0.40;;;22.50;55.20;;;;;;953581;150;27249;-70
2022/07/01 00:14:05;;;;;;;0.40;0.40;;;22.50;55.40;;;;;;953598;150;27298;-71
2022/07/01 00:16:32;;;;;;;0.85;0.55;;;22.40;55.50;;;;;;953849;150;27428;-72
2022/07/01 00:18:58;;;;;;;0.50;0.50;;;22.30;55.60;;;;;;953888;148;27370;-73
2022/07/01 00:21:25;;;;;;;0.23;0.23;;;22.30;55.80;;;;;;953194;150;27351;-70
2022/07/01 00:23:51;;;;;;;0.72;0.30;;;22.20;55.80;;;;;;953242;150;28974;-70
2022/07/01 00:26:18;;;;;;;0.42;0.30;;;22.10;56.00;;;;;;953268;150;27296;-70
2022/07/01 00:28:45;;;;;;;1.70;0.70;;;22.00;56.00;;;;;;954011;150;27285;-71
2022/07/01 00:31:11;;;;;;;0.62;0.40;;;22.00;56.20;;;;;;953337;148;27725;-71
2022/07/01 00:33:38;;;;;;;0.33;0.33;;;21.90;56.40;;;;;;953672;150;27331;-70
2022/07/01 00:36:05;;;;;;;0.40;0.40;;;21.80;56.50;;;;;;953180;150;27362;-70
2022/07/01 00:38:31;;;;;;;1.17;0.42;;;21.80;56.70;;;;;;952720;150;27347;-71
2022/07/01 00:40:58;;;;;;;0.40;0.40;;;21.70;56.90;;;;;;952945;150;27372;-71
2022/07/01 00:43:24;;;;;;;0.50;0.50;;;21.60;57.10;;;;;;953609;148;27346;-71
2022/07/01 00:45:51;;;;;;;0.78;0.40;;;21.60;57.10;;;;;;954015;150;27371;-72
2022/07/01 00:48:18;;;;;;;1.20;0.50;;;21.50;57.30;;;;;;953695;150;27386;-70
2022/07/01 00:50:44;;;;;;;0.30;0.30;;;21.50;57.40;;;;;;953856;148;28490;-71
2022/07/01 00:53:11;;;;;;;0.40;0.40;;;21.40;57.50;;;;;;953343;150;27264;-70
2022/07/01 00:55:37;;;;;;;0.47;0.30;;;21.40;57.70;;;;;;953484;150;27409;-71
2022/07/01 00:58:04;;;;;;;0.40;0.37;;;21.30;57.80;;;;;;953884;150;27443;-70
2022/07/01 01:00:30;;;;;;;0.30;0.30;;;21.30;58.10;;;;;;953526;148;27374;-70
2022/07/01 01:02:57;;;;;;;0.88;0.30;;;21.30;58.40;;;;;;953008;150;27696;-71
2022/07/01 01:05:25;;;;;;;0.90;0.55;;;21.20;58.60;;;;;;953345;150;27322;-71
2022/07/01 01:07:50;;;;;;;0.40;0.28;;;21.20;58.70;;;;;;953752;150;27356;-71
2022/07/01 01:10:17;;;;;;;0.33;0.33;;;21.10;58.80;;;;;;953322;150;27331;-70
2022/07/01 01:12:43;;;;;;;0.30;0.30;;;21.10;59.00;;;;;;953802;150;27300;-72
2022/07/01 01:15:10;;;;;;;0.55;0.55;;;21.00;59.00;;;;;;953635;150;27360;-70
2022/07/01 01:17:37;;;;;;;0.30;0.30;;;20.90;59.30;;;;;;953367;150;28338;-71
2022/07/01 01:20:03;;;;;;;0.35;0.35;;;20.80;59.50;;;;;;953284;150;27296;-71
2022/07/01 01:22:30;;;;;;;0.42;0.30;;;20.80;59.70;;;;;;953173;150;27335;-70
2022/07/01 01:24:56;;;;;;;0.25;0.25;;;20.70;59.80;;;;;;953487;150;27291;-73
2022/07/01 01:27:23;;;;;;;2.08;0.50;;;20.60;59.90;;;;;;953664;150;27469;-71
2022/07/01 01:29:50;;;;;;;1.00;0.57;;;20.60;60.00;;;;;;953131;150;27330;-70
2022/07/01 01:32:16;;;;;;;0.17;0.17;;;20.50;60.20;;;;;;952858;150;27397;-71
2022/07/01 01:34:43;;;;;;;0.40;0.40;;;20.50;60.50;;;;;;953657;149;27790;-71
2022/07/01 01:37:09;;;;;;;0.75;0.20;;;20.40;60.70;;;;;;953418;148;27343;-71
2022/07/01 01:39:39;;;;;;;0.65;0.37;;;20.30;61.00;;;;;;953945;150;27370;-73
2022/07/01 01:42:05;;;;;;;0.35;0.35;;;20.30;61.20;;;;;;953375;150;27502;-72
2022/07/01 01:44:32;;;;;;;0.20;0.20;;;20.20;61.40;;;;;;953509;150;27414;-70
2022/07/01 01:46:58;;;;;;;0.30;0.30;;;20.20;61.70;;;;;;953947;150;27355;-71
2022/07/01 01:49:25;;;;;;;0.40;0.40;;;20.10;61.80;;;;;;953200;150;27243;-71
2022/07/01 01:51:52;;;;;;;0.30;0.30;;;20.10;62.00;;;;;;953733;148;27374;-72
2022/07/01 01:54:18;;;;;;;0.40;0.20;;;20.00;62.40;;;;;;952930;150;27359;-71
2022/07/01 01:56:45;;;;;;;0.50;0.42;;;19.90;62.40;;;;;;953761;150;27312;-70
2022/07/01 01:59:12;;;;;;;0.28;0.28;;;19.90;63.50;;;;;;945693;150;27355;-72
2022/07/01 02:01:38;;;;;;;0.75;0.55;;;19.90;62.90;;;;;;943628;151;27329;-71
2022/07/01 02:04:05;;;;;;;0.30;0.30;;;19.80;63.30;;;;;;944599;151;27410;-72
2022/07/01 02:06:31;;;;;;;0.40;0.40;;;19.70;63.30;;;;;;943925;151;28249;-71
2022/07/01 02:08:58;;;;;;;0.40;0.40;;;19.70;63.60;;;;;;943811;151;27425;-71
2022/07/01 02:11:24;;;;;;;0.23;0.23;;;19.60;63.90;;;;;;943404;151;27332;-71
2022/07/01 02:13:51;;;;;;;0.33;0.30;;;19.60;64.20;;;;;;944206;151;27362;-70
2022/07/01 02:16:17;;;;;;;0.60;0.60;;;19.60;64.50;;;;;;943471;151;27312;-72
2022/07/01 02:18:44;;;;;;;1.17;0.60;;;19.50;64.80;;;;;;944133;151;27347;-70
2022/07/01 02:21:11;;;;;;;0.30;0.30;;;19.40;64.80;;;;;;943404;151;27495;-70
2022/07/01 02:23:37;;;;;;;0.40;0.40;;;19.40;65.10;;;;;;944053;151;27229;-70
2022/07/01 02:26:04;;;;;;;0.37;0.37;;;19.40;65.50;;;;;;944242;151;27316;-71
2022/07/01 02:28:30;;;;;;;0.20;0.20;;;19.30;65.50;;;;;;944328;150;27299;-71
2022/07/01 02:30:57;;;;;;;0.47;0.40;;;19.30;66.40;;;;;;944475;151;27402;-73
2022/07/01 02:33:24;;;;;;;0.40;0.40;;;19.20;66.00;;;;;;944327;151;27321;-71
2022/07/01 02:35:50;;;;;;;0.53;0.50;;;19.20;66.20;;;;;;943735;151;27295;-71
2022/07/01 02:38:17;;;;;;;0.85;0.40;;;19.10;66.60;;;;;;943968;151;27350;-71
2022/07/01 02:40:43;;;;;;;0.23;0.23;;;19.10;66.80;;;;;;943970;151;27332;-71
2022/07/01 02:43:10;;;;;;;0.60;0.42;;;19.10;67.00;;;;;;943875;151;27292;-71
2022/07/01 02:45:37;;;;;;;0.45;0.40;;;19.10;67.30;;;;;;944027;151;27364;-71
2022/07/01 02:48:03;;;;;;;0.30;0.30;;;19.10;67.50;;;;;;943873;151;27396;-71
2022/07/01 02:50:30;;;;;;;0.50;0.50;;;19.10;67.80;;;;;;943228;149;27478;-70
2022/07/01 02:52:56;;;;;;;0.30;0.30;;;19.00;67.90;;;;;;943952;151;27264;-71
2022/07/01 02:55:23;;;;;;;0.53;0.53;;;19.10;68.20;;;;;;944001;151;27269;-71
2022/07/01 02:57:51;;;;;;;0.28;0.28;;;19.10;68.50;;;;;;943450;150;27332;-71
2022/07/01 03:00:16;;;;;;;0.50;0.50;;;19.00;68.50;;;;;;936485;151;27466;-70
2022/07/01 03:02:43;;;;;;;0.50;0.50;;;19.10;68.60;;;;;;935675;152;27301;-70
2022/07/01 03:05:10;;;;;;;0.33;0.33;;;19.10;68.80;;;;;;936564;151;27752;-70
2022/07/01 03:07:36;;;;;;;0.78;0.50;;;19.10;69.00;;;;;;936326;150;27401;-70
2022/07/01 03:10:02;;;;;;;0.47;0.47;;;19.10;69.00;;;;;;936675;152;27439;-69
2022/07/01 03:12:29;;;;;;;0.50;0.50;;;19.10;69.10;;;;;;935194;152;27449;-68
2022/07/01 03:14:56;;;;;;;0.82;0.40;;;19.10;69.20;;;;;;936487;152;27285;-71
2022/07/01 03:17:22;;;;;;;0.30;0.30;;;19.10;69.30;;;;;;936032;152;27322;-69
2022/07/01 03:19:49;;;;;;;0.63;0.50;;;19.10;69.30;;;;;;936104;150;27406;-70
2022/07/01 03:22:15;;;;;;;0.47;0.40;;;19.10;69.20;;;;;;936054;151;27284;-71
2022/07/01 03:24:42;;;;;;;0.45;0.45;;;19.10;69.40;;;;;;936800;152;27341;-69
2022/07/01 03:27:09;;;;;;;1.87;0.50;;;19.10;69.40;;;;;;936932;152;27369;-70
2022/07/01 03:29:35;;;;;;;0.40;0.40;;;19.10;69.50;;;;;;935049;152;27315;-70
2022/07/01 03:32:02;;;;;;;1.93;0.50;;;19.10;69.60;;;;;;936587;151;27316;-69
2022/07/01 03:34:28;;;;;;;1.25;0.55;;;19.10;68.80;;;;;;936419;150;27431;-70
2022/07/01 03:36:55;;;;;;;0.53;0.40;;;19.10;69.80;;;;;;935561;152;27309;-74
2022/07/01 03:39:21;;;;;;;1.35;0.40;;;19.10;69.90;;;;;;935896;152;27332;-69
2022/07/01 03:41:48;;;;;;;0.70;0.70;;;19.10;70.20;;;;;;935450;152;27360;-69
2022/07/01 03:44:15;;;;;;;0.70;0.50;;;19.10;70.40;;;;;;934360;152;27338;-70
2022/07/01 03:46:41;;;;;;;0.50;0.50;;;19.10;70.50;;;;;;936213;151;27397;-69
2022/07/01 03:49:08;;;;;;;0.68;0.68;;;19.10;70.70;;;;;;937193;151;27405;-72
2022/07/01 03:51:34;;;;;;;0.88;0.45;;;19.10;70.90;;;;;;936081;150;27474;-70
2022/07/01 03:56:45;;;;;;;0.33;0.33;;;19.00;71.00;;;;;;935709;152;27624;-70
2022/07/01 03:59:12;;;;;;;1.40;0.60;;;19.00;70.90;;;;;;936188;152;27400;-69
2022/07/01 04:01:39;;;;;;;0.60;0.45;;;19.10;71.40;;;;;;937592;152;27357;-72
2022/07/01 04:04:05;;;;;;;0.70;0.40;;;19.00;71.30;;;;;;937527;149;27926;-69
2022/07/01 04:06:32;;;;;;;0.45;0.45;;;19.10;71.50;;;;;;935188;151;27312;-69
2022/07/01 04:08:58;;;;;;;0.70;0.60;;;19.10;71.50;;;;;;936403;152;27256;-69
2022/07/01 04:11:25;;;;;;;0.60;0.60;;;19.10;71.70;;;;;;935567;152;27297;-71
2022/07/01 04:13:52;;;;;;;0.82;0.72;;;19.10;71.70;;;;;;935554;151;27408;-71
2022/07/01 04:16:18;;;;;;;0.60;0.60;;;19.10;72.60;;;;;;934009;151;27345;-70
2022/07/01 04:18:45;;;;;;;0.45;0.45;;;19.10;72.00;;;;;;936199;152;27800;-71
2022/07/01 04:23:59;;;;;;;0.80;0.80;;;19.10;72.00;;;;;;935779;152;27337;-69
2022/07/01 04:26:26;;;;;;;1.57;1.10;;;19.10;71.70;;;;;;935688;151;27330;-69
2022/07/01 04:28:52;;;;;;;0.78;0.78;;;19.10;71.90;;;;;;935667;151;27659;-72
2022/07/01 04:31:19;;;;;;;0.57;0.57;;;19.10;72.00;;;;;;936537;152;27756;-69
2022/07/01 04:33:45;;;;;;;0.80;0.60;;;19.10;72.40;;;;;;936546;152;27213;-69
2022/07/01 04:36:12;;;;;;;1.07;0.90;;;19.10;72.80;;;;;;935245;152;27302;-69
2022/07/01 04:38:39;;;;;;;0.78;0.78;;;19.00;73.20;;;;;;936374;151;27360;-69
2022/07/01 04:43:50;;;;;;;0.57;0.57;;;19.00;73.50;;;;;;935383;152;27390;-69
2022/07/01 04:46:16;;;;;;;0.82;0.82;;;19.00;73.60;;;;;;934143;152;28580;-70
2022/07/01 04:48:43;;;;;;;0.57;0.57;;;19.00;74.00;;;;;;935048;151;27304;-68
2022/07/01 04:51:10;;;;;;;0.55;0.50;;;19.00;74.10;;;;;;936806;150;27435;-70
2022/07/01 04:53:36;;;;;;;0.65;0.65;;;19.00;74.40;;;;;;937134;152;27615;-70
2022/07/01 04:56:03;;;;;;;1.12;0.85;;;19.00;74.50;;;;;;936984;151;27387;-69
2022/07/01 04:58:29;;;;;;;0.50;0.50;;;19.00;74.80;;;;;;936356;152;27449;-69
2022/07/01 05:00:56;;;;;;;0.55;0.55;;;19.10;74.80;;;;;;940481;150;27301;-69
2022/07/01 05:03:22;;;;;;;1.75;0.80;;;19.00;74.90;;;;;;942363;150;27326;-68
2022/07/01 05:05:49;;;;;;;0.85;0.80;;;19.10;75.30;;;;;;941691;150;27626;-69
2022/07/01 05:08:16;;;;;;;1.00;0.77;;;19.00;75.30;;;;;;941927;150;27267;-70
2022/07/01 05:10:42;;;;;;;0.65;0.65;;;19.00;75.60;;;;;;942667;150;27402;-69
2022/07/01 05:13:09;;;;;;;0.60;0.60;;;19.00;75.90;;;;;;941767;150;27316;-72
2022/07/01 05:15:35;;;;;;;0.95;0.62;;;19.00;76.20;;;;;;940897;150;27375;-70
2022/07/01 05:23:32;;;;;;;0.90;0.72;;;19.10;76.30;;;;;;941081;150;27318;-70
2022/07/01 05:25:58;;;;;;;0.80;0.80;;;19.20;76.30;;;;;;941394;150;27349;-73
2022/07/01 05:28:25;;;;;;;1.10;0.88;;;19.20;76.30;;;;;;941621;150;27319;-69
2022/07/01 05:30:52;;;;;;;0.65;0.65;;;19.20;76.40;;;;;;941816;150;27379;-69
2022/07/01 05:33:19;;;;;;;0.70;0.62;;;19.30;76.60;;;;;;940610;150;27278;-69
2022/07/01 05:35:45;;;;;;;0.80;0.80;;;19.30;76.60;;;;;;940943;150;28072;-69
2022/07/01 05:38:11;;;;;;;0.60;0.60;;;19.30;76.90;;;;;;942514;150;27359;-73
2022/07/01 05:40:38;;;;;;;0.62;0.62;;;19.30;76.80;;;;;;941794;150;27327;-68
2022/07/01 05:43:05;;;;;;;0.70;0.70;;;19.40;76.90;;;;;;942298;150;27453;-69
2022/07/01 05:45:31;;;;;;;0.65;0.42;;;19.40;77.00;;;;;;941428;150;27305;-69
2022/07/01 05:47:58;;;;;;;0.42;0.42;;;19.40;77.00;;;;;;942038;150;27398;-69
2022/07/01 05:50:24;;;;;;;0.60;0.50;;;19.40;77.00;;;;;;941249;150;27417;-72
2022/07/01 05:52:51;;;;;;;0.90;0.45;;;19.40;77.20;;;;;;942118;149;27368;-69
2022/07/01 05:55:17;;;;;;;0.55;0.55;;;19.40;77.20;;;;;;940631;150;27775;-71
2022/07/01 05:57:44;;;;;;;2.40;0.75;;;19.40;77.20;;;;;;938882;150;27351;-69
2022/07/01 06:00:11;;;;;;;0.78;0.78;;;19.40;77.40;;;;;;938993;148;27440;-70
2022/07/01 06:02:38;;;;;;;1.25;0.88;;;19.40;77.50;;;;;;936120;152;27325;-69
2022/07/01 06:05:04;;;;;;;1.52;0.68;;;19.50;77.40;;;;;;935330;152;27301;-72
2022/07/01 06:07:31;;;;;;;0.50;0.50;;;19.50;77.40;;;;;;937074;149;27327;-73
2022/07/01 06:09:57;;;;;;;0.78;0.65;;;19.50;77.10;;;;;;935409;152;27339;-70
2022/07/01 06:12:24;;;;;;;0.40;0.40;;;19.50;77.10;;;;;;936072;151;27411;-70
2022/07/01 06:14:51;;;;;;;0.42;0.42;;;19.50;77.20;;;;;;937179;151;27306;-71
2022/07/01 06:17:17;;;;;;;0.53;0.50;;;19.50;77.50;;;;;;935673;152;27383;-71
2022/07/01 06:19:44;;;;;;;1.27;1.05;;;19.50;77.70;;;;;;936554;151;27363;-73
2022/07/01 06:22:11;;;;;;;0.35;0.35;;;19.60;77.50;;;;;;935443;152;27353;-70
2022/07/01 06:24:37;;;;;;;0.72;0.55;;;19.60;77.40;;;;;;937199;152;27620;-70
2022/07/01 06:27:04;;;;;;;0.68;0.68;;;19.70;77.70;;;;;;920119;152;27451;-71
2022/07/01 06:29:31;;;;;;;0.42;0.42;;;19.70;78.60;;;;;;916110;152;27773;-71
2022/07/01 06:31:57;;;;;;;1.30;0.78;;;19.70;77.80;;;;;;935959;149;27342;-74
2022/07/01 06:34:23;;;;;;;0.42;0.42;;;19.80;77.70;;;;;;930141;152;27367;-71
2022/07/01 06:36:50;;;;;;;1.05;0.50;;;19.90;78.20;;;;;;929745;152;28609;-74
2022/07/01 06:39:17;;;;;;;1.20;0.60;;;20.00;79.60;;;;;;929985;152;27263;-74
2022/07/01 06:41:43;;;;;;;0.72;0.68;;;20.10;79.30;;;;;;930048;151;27350;-74
2022/07/01 06:44:10;;;;;;;0.60;0.50;;;20.30;79.80;;;;;;930961;152;27362;-74
2022/07/01 06:46:36;;;;;;;1.17;0.40;;;20.60;80.30;;;;;;929648;152;27704;-74
2022/07/01 06:49:03;;;;;;;0.50;0.50;;;20.90;80.30;;;;;;929935;152;27378;-74
2022/07/01 06:51:30;;;;;;;0.68;0.60;;;21.20;79.70;;;;;;929698;152;27454;-74
2022/07/01 06:53:56;;;;;;;0.75;0.72;;;21.50;78.70;;;;;;929926;152;27342;-74
2022/07/01 06:56:23;;;;;;;0.72;0.72;;;21.80;77.20;;;;;;930436;152;27377;-74
2022/07/01 06:58:49;;;;;;;0.70;0.60;;;22.10;75.70;;;;;;930458;152;27699;-74
2022/07/01 07:01:16;;;;;;;0.47;0.40;;;22.30;74.30;;;;;;927055;152;27420;-74
2022/07/01 07:03:42;;;;;;;0.50;0.50;;;22.50;72.90;;;;;;902693;154;27398;-74
2022/07/01 07:06:09;;;;;;;0.50;0.50;;;22.60;72.00;;;;;;915483;154;27321;-74
2022/07/01 07:08:36;;;;;;;0.42;0.42;;;22.80;71.00;;;;;;921458;151;27317;-74
2022/07/01 07:11:03;;;;;;;0.28;0.28;;;22.90;70.50;;;;;;921691;151;27342;-74
2022/07/01 07:13:29;;;;;;;1.07;0.35;;;23.00;69.90;;;;;;922146;150;27478;-74
2022/07/01 07:15:56;;;;;;;0.50;0.50;;;23.00;69.70;;;;;;916918;154;28504;-74
2022/07/01 07:18:22;;;;;;;0.37;0.37;;;23.10;69.20;;;;;;917264;154;27379;-76
2022/07/01 07:20:49;;;;;;;0.95;0.50;;;23.10;68.70;;;;;;916274;154;27330;-76
2022/07/01 07:23:15;;;;;;;0.33;0.33;;;23.10;68.20;;;;;;917716;154;27373;-76
2022/07/01 07:25:42;;;;;;;0.90;0.68;;;23.10;67.80;;;;;;922008;151;27814;-76
2022/07/01 07:28:08;;;;;;;0.93;0.47;;;23.10;67.50;;;;;;905127;154;28049;-76
2022/07/01 07:30:35;;;;;;;0.57;0.47;;;23.10;67.20;;;;;;919955;152;28143;-76
2022/07/01 07:33:02;;;;;;;1.07;0.60;;;23.10;67.00;;;;;;925018;150;27368;-76
2022/07/01 07:35:28;;;;;;;0.37;0.37;;;23.00;66.90;;;;;;910350;154;27461;-76
2022/07/01 07:37:55;;;;;;;0.85;0.60;;;23.00;67.10;;;;;;908788;154;27379;-76
2022/07/01 07:40:21;;;;;;;0.55;0.42;;;22.90;66.90;;;;;;921976;152;27382;-76
2022/07/01 07:42:48;;;;;;;0.50;0.47;;;22.90;66.70;;;;;;916919;154;27377;-76
2022/07/01 07:45:15;;;;;;;2.30;0.57;;;22.80;66.40;;;;;;917278;154;27370;-76
2022/07/01 07:47:48;;;;;;;0.42;0.40;;;22.70;66.20;;;;;;919862;151;27343;-76
2022/07/01 07:50:13;;;;;;;0.40;0.40;;;22.60;66.30;;;;;;916473;154;27522;-77
2022/07/01 07:52:39;;;;;;;1.50;0.55;;;22.50;66.30;;;;;;917351;154;28705;-77
2022/07/01 07:55:06;;;;;;;0.47;0.40;;;22.40;66.60;;;;;;922846;152;27322;-77
2022/07/01 07:57:33;;;;;;;0.53;0.53;;;22.30;66.90;;;;;;908110;154;27342;-77
2022/07/01 07:59:59;;;;;;;0.33;0.33;;;22.20;67.10;;;;;;907344;154;27339;-77
2022/07/01 08:02:26;;;;;;;0.60;0.60;;;22.20;67.40;;;;;;921372;152;27407;-77
2022/07/01 08:04:52;;;;;;;2.70;0.90;;;22.10;67.60;;;;;;925560;152;27349;-75
2022/07/01 08:07:19;;;;;;;0.55;0.47;;;22.00;67.90;;;;;;913984;153;27366;-76
2022/07/01 08:09:48;;;;;;;0.53;0.53;;;22.00;68.10;;;;;;934665;150;27379;-76
2022/07/01 08:12:12;;;;;;;0.60;0.57;;;22.00;68.40;;;;;;935392;149;27435;-76
2022/07/01 08:14:39;;;;;;;1.72;0.72;;;21.90;68.80;;;;;;936650;150;27635;-76
2022/07/01 08:17:05;;;;;;;1.65;0.85;;;21.90;69.00;;;;;;935018;150;27362;-74
2022/07/01 08:19:32;;;;;;;2.05;0.75;;;21.80;69.40;;;;;;936292;151;27443;-73
2022/07/01 08:21:59;;;;;;;0.75;0.57;;;21.80;69.40;;;;;;936109;151;27407;-75
2022/07/01 08:24:25;;;;;;;0.95;0.82;;;21.80;69.50;;;;;;936360;151;27309;-75
2022/07/01 08:26:52;;;;;;;3.83;1.65;;;21.70;69.50;;;;;;936251;151;28245;-75
2022/07/01 08:29:18;;;;;;;1.30;0.90;;;21.60;69.80;;;;;;935606;151;27352;-73
2022/07/01 08:31:45;;;;;;;1.55;1.10;;;21.50;70.20;;;;;;936971;151;27471;-72
2022/07/01 08:34:12;;;;;;;1.05;0.90;;;21.50;70.30;;;;;;936533;151;27336;-72
2022/07/01 08:36:38;;;;;;;0.98;0.62;;;21.40;70.40;;;;;;936564;151;27433;-75
2022/07/01 08:39:05;;;;;;;5.03;1.07;;;21.30;70.70;;;;;;935610;151;27372;-73
2022/07/01 08:41:31;;;;;;;0.82;0.78;;;21.30;70.70;;;;;;936357;151;27357;-75
2022/07/01 08:43:58;;;;;;;0.45;0.45;;;21.20;70.90;;;;;;935808;151;27393;-74
2022/07/01 08:46:24;;;;;;;1.67;0.50;;;21.10;70.90;;;;;;936208;151;27346;-74
2022/07/01 08:48:51;;;;;;;0.88;0.88;;;21.10;71.30;;;;;;934238;151;27990;-72
2022/07/01 08:51:18;;;;;;;0.95;0.90;;;21.10;71.80;;;;;;935870;149;27406;-73
2022/07/01 08:53:44;;;;;;;1.85;0.95;;;21.10;72.60;;;;;;938037;151;27431;-73
2022/07/01 08:58:55;;;;;;;1.95;1.00;;;21.10;73.70;;;;;;935567;151;27405;-72
2022/07/01 09:01:22;;;;;;;0.75;0.75;;;21.20;74.30;;;;;;936036;151;27487;-72
2022/07/01 09:03:52;;;;;;;0.72;0.72;;;21.30;75.10;;;;;;936635;151;27487;-73
2022/07/01 09:06:21;;;;;;;1.10;0.90;;;21.50;75.20;;;;;;936499;151;27388;-75
2022/07/01 09:08:47;;;;;;;0.70;0.68;;;21.70;75.10;;;;;;937957;151;27465;-72
2022/07/01 09:11:14;;;;;;;1.35;0.70;;;21.90;74.60;;;;;;935328;151;27835;-72
2022/07/01 09:13:41;;;;;;;0.90;0.72;;;22.00;74.00;;;;;;934749;151;27455;-72
2022/07/01 09:16:13;;;;;;;1.25;0.80;;;22.20;73.80;;;;;;936450;151;27320;-73
2022/07/01 09:18:40;;;;;;;0.90;0.70;;;22.30;72.90;;;;;;935525;151;27442;-74
2022/07/01 09:21:09;;;;;;;0.88;0.85;;;22.40;72.50;;;;;;936091;151;27495;-72
2022/07/01 09:23:36;;;;;;;0.75;0.70;;;22.50;72.40;;;;;;936339;151;27369;-72
2022/07/01 09:26:02;;;;;;;2.65;1.00;;;22.60;71.90;;;;;;936407;151;27411;-72
2022/07/01 09:28:29;;;;;;;1.62;0.78;;;22.70;71.20;;;;;;937103;151;27458;-73
2022/07/01 09:30:57;;;;;;;1.22;0.82;;;22.80;70.70;;;;;;936659;151;27464;-74
2022/07/01 09:33:24;;;;;;;1.05;0.53;;;22.80;70.50;;;;;;936474;151;27424;-72
2022/07/01 09:35:52;;;;;;;0.93;0.90;;;22.90;70.70;;;;;;936577;151;27431;-72
2022/07/01 09:38:18;;;;;;;1.00;0.62;;;22.90;70.30;;;;;;936776;151;27443;-72
2022/07/01 09:40:53;;;;;;;0.80;0.72;;;22.90;70.30;;;;;;935791;151;27648;-73
2022/07/01 09:45:40;;;;;;;0.70;0.70;;;22.90;69.50;;;;;;972546;145;37262;-72
2022/07/01 09:48:06;;;;;;;0.65;0.65;;;22.80;69.10;;;;;;955858;148;27426;-74
2022/07/01 09:50:36;;;;;;;0.60;0.60;;;22.70;69.20;;;;;;956895;148;27404;-72
2022/07/01 09:53:00;;;;;;;0.70;0.70;;;22.60;69.60;;;;;;933475;152;27474;-71
2022/07/01 09:55:26;;;;;;;2.75;0.82;;;22.50;69.10;;;;;;933658;152;27443;-73
2022/07/01 09:57:53;;;;;;;2.47;1.00;;;22.40;69.40;;;;;;933894;152;27298;-71
2022/07/01 10:00:19;;;;;;;0.95;0.95;;;22.40;69.70;;;;;;933802;152;27397;-72
2022/07/01 10:02:46;;;;;;;1.72;0.82;;;22.30;69.90;;;;;;933039;152;27286;-71
2022/07/01 10:05:12;;;;;;;1.35;0.90;;;22.20;70.30;;;;;;933040;151;27410;-75
2022/07/01 10:08:04;;;;;;;1.05;0.90;;;22.20;70.50;;;;;;933638;152;27361;-72
2022/07/01 10:10:36;;;;;;;2.45;1.00;;;22.20;70.80;;;;;;931763;152;27474;-74
2022/07/01 10:13:03;;;;;;;1.10;0.90;;;22.20;71.00;;;;;;931277;152;27387;-74
2022/07/01 10:15:29;;;;;;;1.17;1.07;;;22.20;71.40;;;;;;932399;152;27358;-74
2022/07/01 10:17:56;;;;;;;1.40;1.30;;;22.20;71.40;;;;;;934019;152;27283;-74
2022/07/01 10:20:26;;;;;;;1.12;1.02;;;22.20;71.40;;;;;;933412;152;27319;-76
2022/07/01 10:22:52;;;;;;;1.15;0.90;;;22.20;71.60;;;;;;932403;152;27394;-74
2022/07/01 10:25:34;;;;;;;1.85;1.12;;;22.20;72.30;;;;;;931256;151;28200;-75
2022/07/01 10:28:28;;;;;;;1.30;0.98;;;22.20;72.50;;;;;;932125;152;27367;-74
2022/07/01 10:31:04;;;;;;;2.70;1.32;;;22.30;73.00;;;;;;932930;151;27379;-72
2022/07/01 10:33:49;;;;;;;1.32;1.27;;;22.50;73.50;;;;;;934911;149;27387;-72
2022/07/01 10:36:33;;;;;;;2.05;1.20;;;22.70;74.80;;;;;;932448;152;27419;-73
2022/07/01 10:39:11;;;;;;;1.20;1.10;;;22.90;75.50;;;;;;934766;152;27438;-75
2022/07/01 10:41:53;;;;;;;1.65;1.42;;;23.20;75.20;;;;;;933326;152;28323;-72
2022/07/01 10:44:19;;;;;;;1.98;1.50;;;23.50;75.40;;;;;;930804;152;27392;-72
2022/07/01 10:47:00;;;;;;;2.22;1.40;;;23.90;74.70;;;;;;926403;152;27413;-72
2022/07/01 10:49:21;;;;;;;1.32;1.22;;;24.20;73.10;;;;;;927364;153;27382;-76
2022/07/01 10:51:50;;;;;;;2.90;1.12;;;24.50;71.40;;;;;;922304;151;29373;-73
2022/07/01 10:54:35;;;;;;;2.45;1.42;;;24.80;69.90;;;;;;927356;153;27450;-75
2022/07/01 10:57:20;;;;;;;2.55;1.30;;;25.00;69.00;;;;;;924146;153;27293;-72
2022/07/01 11:00:01;;;;;;;1.20;1.10;;;25.10;68.10;;;;;;926908;153;27440;-72
2022/07/01 11:02:28;;;;;;;2.55;1.07;;;25.20;67.10;;;;;;925936;153;27404;-76
2022/07/01 11:04:55;;;;;;;1.00;0.98;;;25.30;66.60;;;;;;925501;152;27474;-72
2022/07/01 11:07:21;;;;;;;1.72;1.15;;;25.30;67.30;;;;;;927063;153;27326;-73
2022/07/01 11:09:48;;;;;;;4.58;1.00;;;25.40;66.00;;;;;;925210;152;28005;-74
2022/07/01 11:12:17;;;;;;;1.72;1.15;;;25.40;65.50;;;;;;925828;152;27359;-73
2022/07/01 11:14:44;;;;;;;1.47;1.30;;;25.50;65.00;;;;;;924151;153;27326;-74
2022/07/01 11:17:10;;;;;;;1.27;1.00;;;25.60;64.50;;;;;;904855;153;27396;-73
2022/07/01 11:19:37;;;;;;;1.07;0.78;;;25.70;64.70;;;;;;916583;152;27818;-73
2022/07/01 11:22:05;;;;;;;1.42;1.05;;;25.80;64.30;;;;;;918482;154;27373;-73
2022/07/01 11:24:30;;;;;;;1.15;1.05;;;25.90;64.40;;;;;;905879;153;27511;-73
2022/07/01 11:27:00;;;;;;;1.37;1.12;;;26.10;64.50;;;;;;916514;152;27453;-73
2022/07/01 11:29:26;;;;;;;1.45;0.90;;;26.30;64.20;;;;;;917495;152;27859;-74
2022/07/01 11:31:53;;;;;;;1.55;1.20;;;26.50;63.50;;;;;;916263;152;27390;-72
2022/07/01 11:34:20;;;;;;;1.57;1.05;;;26.70;62.50;;;;;;917126;152;27365;-73
2022/07/01 11:39:35;;;;;;;1.40;0.88;;;26.90;60.30;;;;;;917590;152;27355;-73
2022/07/01 11:41:57;;;;;;;1.77;0.78;;;27.00;60.20;;;;;;905841;153;27378;-75
2022/07/01 11:44:39;;;;;;;1.45;0.90;;;27.00;59.60;;;;;;942943;146;27468;-74
2022/07/01 11:47:09;;;;;;;1.82;1.02;;;27.10;59.50;;;;;;944738;146;27362;-73
2022/07/01 11:49:36;;;;;;;2.90;1.02;;;27.10;59.60;;;;;;944395;146;27823;-74
2022/07/01 11:52:02;;;;;;;1.65;1.00;;;27.20;59.70;;;;;;940961;146;27882;-73
2022/07/01 11:54:28;;;;;;;1.52;0.98;;;27.30;59.20;;;;;;943359;146;27262;-73
2022/07/01 11:56:55;;;;;;;2.17;0.88;;;27.40;58.60;;;;;;940794;146;27347;-73
2022/07/01 11:59:21;;;;;;;0.75;0.70;;;27.60;58.10;;;;;;941111;146;27740;-73
2022/07/01 12:01:51;;;;;;;1.17;1.07;;;27.60;57.60;;;;;;942476;146;27338;-73
2022/07/01 12:04:18;;;;;;;1.50;0.75;;;27.70;56.80;;;;;;942299;146;27351;-73
2022/07/01 12:06:44;;;;;;;1.12;1.02;;;27.70;56.60;;;;;;944231;146;27387;-73
2022/07/01 12:09:14;;;;;;;2.02;0.68;;;27.70;56.20;;;;;;943195;146;27321;-74
2022/07/01 12:11:40;;;;;;;0.75;0.70;;;27.60;55.60;;;;;;942707;146;27436;-74
2022/07/01 12:14:09;;;;;;;1.02;0.90;;;27.50;55.50;;;;;;941705;146;27422;-73
2022/07/01 12:16:40;;;;;;;1.75;0.90;;;27.40;55.60;;;;;;943079;146;27299;-74
2022/07/01 12:19:07;;;;;;;1.15;0.93;;;27.30;55.40;;;;;;943744;146;27386;-73
2022/07/01 12:21:34;;;;;;;1.15;0.80;;;27.20;55.50;;;;;;939712;146;27317;-75
2022/07/01 12:24:03;;;;;;;0.85;0.70;;;27.10;55.40;;;;;;940995;146;27363;-74
2022/07/01 12:26:30;;;;;;;0.70;0.70;;;27.00;55.90;;;;;;942661;146;27357;-73
2022/07/01 12:28:56;;;;;;;0.72;0.70;;;26.90;55.60;;;;;;941623;146;27388;-73
2022/07/01 12:31:23;;;;;;;2.08;0.90;;;26.90;55.60;;;;;;943800;146;27390;-74
2022/07/01 12:33:49;;;;;;;1.35;0.90;;;26.90;55.80;;;;;;943083;146;28175;-73
2022/07/01 12:36:16;;;;;;;1.12;0.90;;;26.90;56.00;;;;;;941140;146;27261;-73
2022/07/01 12:38:42;;;;;;;0.80;0.68;;;27.00;55.90;;;;;;942674;146;27432;-73
2022/07/01 12:41:33;;;;;;;1.55;0.80;;;27.10;55.80;;;;;;941559;146;27352;-75
2022/07/01 12:43:57;;;;;;;1.77;0.93;;;27.10;55.30;;;;;;942682;146;27357;-74
2022/07/01 12:46:27;;;;;;;1.50;0.75;;;27.20;54.60;;;;;;949296;145;27512;-73
2022/07/01 12:48:53;;;;;;;1.05;0.90;;;27.20;54.60;;;;;;963446;145;27342;-75
2022/07/01 12:51:20;;;;;;;3.05;1.00;;;27.30;54.70;;;;;;963094;145;27310;-74
2022/07/01 12:53:47;;;;;;;0.90;0.90;;;27.40;54.70;;;;;;962697;145;27388;-75
2022/07/01 12:56:23;;;;;;;0.98;0.62;;;27.40;54.50;;;;;;963699;145;27370;-74
2022/07/01 12:58:49;;;;;;;0.53;0.50;;;27.50;54.40;;;;;;963623;145;27349;-73
2022/07/01 13:01:16;;;;;;;1.40;0.95;;;27.60;54.40;;;;;;962519;145;27306;-73
2022/07/01 13:03:42;;;;;;;1.37;0.90;;;27.70;54.10;;;;;;962864;145;27327;-73
2022/07/01 13:06:09;;;;;;;1.80;1.02;;;27.70;53.40;;;;;;926580;151;27362;-75
2022/07/01 13:08:35;;;;;;;0.70;0.70;;;27.70;53.10;;;;;;941473;148;27384;-73
2022/07/01 13:11:02;;;;;;;1.75;0.90;;;27.60;52.70;;;;;;923698;151;27390;-75